createdAt,value
2019-05-19T00:06:24.763Z,92901.70
2019-05-19T00:16:58.349Z,92896.94
2019-05-19T00:27:31.994Z,92893.52
2019-05-19T00:38:05.593Z,92884.86
2019-05-19T00:48:38.431Z,92886.84
2019-05-19T00:59:12.872Z,92885.07
2019-05-19T01:09:46.325Z,92891.53
2019-05-19T01:20:20.115Z,92889.20
2019-05-19T01:30:53.489Z,92882.66
2019-05-19T01:41:26.398Z,92875.56
2019-05-19T01:51:59.268Z,92869.81
2019-05-19T02:02:32.962Z,92869.69
2019-05-19T02:13:06.389Z,92863.20
2019-05-19T02:23:40.153Z,92875.11
2019-05-19T02:34:13.755Z,92875.45
2019-05-19T02:44:48.539Z,92883.50
2019-05-19T02:55:21.897Z,92878.02
2019-05-19T03:05:55.205Z,92883.13
2019-05-19T03:16:28.910Z,92905.37
2019-05-19T03:27:02.519Z,92903.66
2019-05-19T03:37:36.082Z,92903.75
2019-05-19T03:48:09.636Z,92904.23
2019-05-19T03:58:43.064Z,92909.38
2019-05-19T04:09:17.526Z,92923.42
2019-05-19T04:19:51.104Z,92921.44
2019-05-19T04:30:24.478Z,92918.80
2019-05-19T04:40:57.898Z,92920.76
2019-05-19T04:51:31.539Z,92936.32
2019-05-19T05:02:04.322Z,92937.87
2019-05-19T05:12:37.860Z,92931.36
2019-05-19T05:23:11.297Z,92922.73
2019-05-19T05:33:44.997Z,92924.19
2019-05-19T05:44:18.432Z,92926.85
2019-05-19T05:54:52.242Z,92928.95
2019-05-19T06:05:25.640Z,92917.48
2019-05-19T06:15:59.233Z,92922.63
2019-05-19T06:26:32.331Z,92924.78
2019-05-19T06:37:05.774Z,92929.28
2019-05-19T06:47:39.303Z,92926.55
2019-05-19T06:58:12.675Z,92909.27
2019-05-19T07:08:46.118Z,92912.14
2019-05-19T07:19:19.649Z,92914.64
2019-05-19T07:29:53.169Z,92913.31
2019-05-19T07:40:26.783Z,92892.81
2019-05-19T07:51:00.398Z,92902.57
2019-05-19T08:01:33.993Z,92894.77
2019-05-19T08:12:07.609Z,92890.28
2019-05-19T08:22:41.213Z,92883.44
2019-05-19T08:33:14.703Z,92872.69
2019-05-19T08:43:48.459Z,92868.02
2019-05-19T08:54:22.079Z,92860.07
2019-05-19T09:04:54.922Z,92864.85
2019-05-19T09:15:28.514Z,92863.17
2019-05-19T09:26:02.056Z,92847.90
2019-05-19T09:36:35.849Z,92841.86
2019-05-19T09:47:09.350Z,92837.02
2019-05-19T09:57:42.667Z,92830.97
2019-05-19T10:08:16.300Z,92815.66
2019-05-19T10:18:50.102Z,92797.38
2019-05-19T10:29:23.331Z,92789.73
2019-05-19T10:39:56.918Z,92780.15
2019-05-19T10:50:29.729Z,92776.50
2019-05-19T11:01:03.131Z,92761.27
2019-05-19T11:11:35.952Z,92760.64
2019-05-19T11:22:09.421Z,92743.97
2019-05-19T11:32:43.054Z,92736.17
2019-05-19T11:43:16.635Z,92725.73
2019-05-19T11:53:49.344Z,92728.81
2019-05-19T12:04:23.003Z,92722.16
2019-05-19T12:14:56.669Z,92705.56
2019-05-19T12:25:30.384Z,92699.11
2019-05-19T12:36:04.142Z,92684.02
2019-05-19T12:46:37.900Z,92675.23
2019-05-19T12:57:11.621Z,92656.45
2019-05-19T13:07:45.172Z,92653.40
2019-05-19T13:18:18.645Z,92656.04
2019-05-19T13:28:51.813Z,92653.30
2019-05-19T13:39:25.649Z,92653.55
2019-05-19T13:49:59.374Z,92664.20
2019-05-19T14:00:32.503Z,92656.11
2019-05-19T14:11:06.213Z,92660.20
2019-05-19T14:21:39.766Z,92669.23
2019-05-19T14:32:13.508Z,92661.27
2019-05-19T14:42:55.210Z,92665.95
2019-05-19T14:53:28.682Z,92660.07
2019-05-19T15:04:01.465Z,92654.00
2019-05-19T15:14:35.009Z,92640.16
2019-05-19T15:25:08.484Z,92631.97
2019-05-19T15:35:41.763Z,92613.67
2019-05-19T15:46:18.130Z,92594.64
2019-05-19T15:56:50.678Z,92582.48
2019-05-19T16:07:24.594Z,92580.70
2019-05-19T16:17:58.051Z,92579.79
2019-05-19T16:28:31.731Z,92575.42
2019-05-19T16:39:05.139Z,92584.78
2019-05-19T16:49:37.711Z,92578.26
2019-05-19T17:00:11.295Z,92579.65
2019-05-19T17:10:44.906Z,92575.38
2019-05-19T17:21:18.302Z,92565.58
2019-05-19T17:32:05.318Z,92556.29
2019-05-19T17:53:05.582Z,92545.19
2019-05-19T18:03:40.014Z,92531.23
2019-05-19T18:14:12.761Z,92545.95
2019-05-19T18:24:46.487Z,92531.54
2019-05-19T18:35:20.039Z,92539.37
2019-05-19T18:45:53.621Z,92541.06
2019-05-19T18:56:27.338Z,92546.34
2019-05-19T19:07:01.080Z,92553.34
2019-05-19T19:17:34.535Z,92566.66
2019-05-19T19:28:08.082Z,92580.20
2019-05-19T19:38:41.662Z,92578.55
2019-05-19T19:49:15.147Z,92591.20
2019-05-19T19:59:48.346Z,92593.35
2019-05-19T20:10:21.880Z,92608.53
2019-05-19T20:20:55.365Z,92616.47
2019-05-19T20:31:31.389Z,92631.61
2019-05-19T20:42:04.296Z,92652.14
2019-05-19T20:52:37.581Z,92642.00
2019-05-19T21:03:11.348Z,92634.48
2019-05-19T21:13:44.756Z,92661.55
2019-05-19T21:24:18.594Z,92668.91
2019-05-19T21:34:52.258Z,92671.20
2019-05-19T21:45:25.931Z,92667.23
2019-05-19T21:55:59.726Z,92644.86
2019-05-19T22:06:34.990Z,92656.92
2019-05-19T22:17:08.753Z,92652.01
2019-05-19T22:27:42.115Z,92659.23
2019-05-19T22:38:15.592Z,92658.21
2019-05-19T22:48:49.232Z,92664.52
2019-05-19T22:59:22.854Z,92666.27
2019-05-19T23:09:56.387Z,92656.56
2019-05-19T23:20:29.835Z,92657.97
2019-05-19T23:31:03.383Z,92665.28
2019-05-19T23:41:36.014Z,92671.77
2019-05-19T23:52:09.583Z,92684.08
